New Haven, Kentucky
Current Conditions -  °F | °C
As of 11:55 PM on Friday 28 Nov 2014 (Local Time) from K6I2 Reporting Station
Clear Clear  
Wind Chill:   Ceiling: Unl
Heat Index:   Visibility: 10mi
Dew Point: -7°   Wind: 13mph
Humidity: 45%   Direction: 360°N
Pressure: 30.07"   Gusts: 20mph
Location:  37.66°N, 85.59°W
Report Text: K6I2 290455Z AUTO 36011G17KT 10SM CLR 04/M07 A3007 RMK AO2
Loading
Personal Weather Stations






























Interactive Weather Map New forecast layout! Learn more

10-Day Weather Forecast

Advertisements
Track Severe Weather on mobile